Williams Lake Airport
CYWL : now visible

Airfield :











YOU CAN JOIN US ON...

 
LOGIN :

Register | Disclaimer

   EN    FR    IT 

 









Legend :    VFR   Marginal VFR   IFR   Intensive IFR   Very Intensive IFR
Visi :
Ceiling :
>= 8 km
>= 3000ft
5 to 8 km
1000 to 3000 ft
1500m to 5 km
500 to 1000 ft
800 to 1500m
200 to 500 ft
< 800m
< 200 ft
Symbols :   Thunderstorms  Fog  Heavy snow  Heavy precipitations  Wind > 20 kt






- Airport Elevation : 3085 ft
- IATA code : YWL


CYWL - Williams Lake

CURRENT METAR :
  • 021600Z 33007KT 15SM FEW020 BKN230 15/11 A3003 RMK CU1CI5 SLP172 DENSITY ALT 3700FT

EXPIRED METARs :
  • 021500Z 31005KT 15SM FEW012 BKN230 13/10 A3003 RMK CU1CI4 SLP173 DENSITY ALT 3500FT
  • 020300Z 32007KT 15SM FEW050 BKN200 17/10 A3000 RMK CU2CI3 SLP161 DENSITY ALT 4000FT
  • 021400Z VRB02KT 15SM FEW010 SCT220 12/10 A3003 RMK SF1CI4 SF TR SLP172 DENSITY ALT 3400FT

TAF TAF CYWL
Valid from the 02 at 13:00 until the 03 at 01:00 UTC


021240Z 0213/0301 VRB03KT P6SM SCT005 SCT090 SCT150
TEMPO 0213/0215 3SM -SHRA BR SCT005 OVC080
PROB30 0213/0215 1SM BR OVC005
FM021500 VRB03KT P6SM SCT005 SCT025 BKN050
TEMPO 0215/0217 5SM -SHRA BR SCT005 BKN020
FM021700 30006KT P6SM SCT050 BKN080
TEMPO 0217/0301 P6SM -SHRA BKN060
PROB30 0217/0301 4SM TSRA BR BKN050CB RMK NXT FCST BY 021900Z
CZVR FIR / North America



MET'MAP, your aeronautical weather chart ! - Copyright ORBIFLY December 2007 - Disclaimer

ORBIFLY MET'MAP TEAM :

Programming & Development : Alexandra Zaïnal
Original concept : Baudouin d'Aumeries
Technical & hardware support : Manuel Goepfert
Assistance : Marc-Olivier Méhu




SOURCES & CREDITS :

   NOAA       Earth
Advisory